Time;durP1;ratioP1;P1;durP2;ratioP2;P2;SDS_P1;SDS_P2;PMS_P1;PMS_P2;Temp;Humidity;BMP_temperature;BMP_pressure;BME280_temperature;BME280_humidity;BME280_pressure;Samples;Min_cycle;Max_cycle;Signal;HPM_P1;HPM_P2
2024/03/15 00:00:17;;;;;;;5.85;2.20;;;14.10;82.10;;;;;;5015285;28;20018;-77
2024/03/15 00:02:45;;;;;;;7.00;2.30;;;14.10;82.30;;;;;;5013818;28;20022;-77
2024/03/15 00:05:11;;;;;;;5.80;2.70;;;14.10;82.50;;;;;;5015276;28;20018;-76
2024/03/15 00:07:37;;;;;;;6.07;2.80;;;14.00;82.60;;;;;;5030436;28;20026;-76
2024/03/15 00:10:03;;;;;;;8.02;3.00;;;14.00;82.70;;;;;;5014946;28;20030;-76
2024/03/15 00:12:28;;;;;;;6.30;2.90;;;14.00;82.60;;;;;;5015525;28;20029;-77
2024/03/15 00:14:55;;;;;;;6.28;3.03;;;14.00;83.10;;;;;;5014599;28;20037;-77
2024/03/15 00:17:20;;;;;;;6.15;2.75;;;13.90;83.50;;;;;;5013464;28;20117;-77
2024/03/15 00:19:46;;;;;;;5.82;3.03;;;13.90;83.40;;;;;;5014808;28;20054;-78
2024/03/15 00:22:12;;;;;;;7.13;2.97;;;13.80;83.50;;;;;;5014655;28;20053;-77
2024/03/15 00:24:37;;;;;;;6.90;3.15;;;13.80;83.80;;;;;;5014928;28;20462;-77
2024/03/15 00:27:03;;;;;;;6.22;3.58;;;13.80;83.90;;;;;;5030094;28;20071;-77
2024/03/15 00:29:29;;;;;;;7.55;3.47;;;13.70;84.50;;;;;;5013345;28;20408;-77
2024/03/15 00:31:59;;;;;;;6.47;3.15;;;13.70;84.80;;;;;;5014282;28;20156;-77
2024/03/15 00:34:24;;;;;;;8.35;3.50;;;13.70;84.80;;;;;;5014544;28;20378;-77
2024/03/15 00:36:52;;;;;;;5.05;2.85;;;13.70;85.30;;;;;;5014527;28;20032;-77
2024/03/15 00:39:20;;;;;;;5.85;3.25;;;13.70;85.20;;;;;;5029834;28;20404;-77
2024/03/15 00:41:46;;;;;;;7.65;3.63;;;13.70;85.50;;;;;;5014289;28;20109;-77
2024/03/15 00:44:12;;;;;;;5.53;2.88;;;13.70;85.40;;;;;;5014194;28;20102;-77
2024/03/15 00:46:38;;;;;;;8.70;3.78;;;13.70;85.70;;;;;;5014326;28;20024;-77
2024/03/15 00:49:04;;;;;;;7.47;3.40;;;13.70;85.70;;;;;;5013981;28;20022;-77
2024/03/15 00:51:30;;;;;;;7.35;3.40;;;13.80;86.20;;;;;;5014204;28;20018;-77
2024/03/15 00:53:55;;;;;;;8.30;3.88;;;13.70;86.30;;;;;;5014057;28;20068;-77
2024/03/15 00:56:21;;;;;;;7.72;4.28;;;13.70;86.60;;;;;;5013971;28;20030;-77
2024/03/15 00:58:47;;;;;;;7.70;4.13;;;13.80;87.10;;;;;;5013828;28;20482;-77
2024/03/15 01:01:12;;;;;;;7.88;3.90;;;13.80;87.00;;;;;;5013892;28;20060;-77
2024/03/15 01:03:39;;;;;;;6.25;3.63;;;13.70;87.00;;;;;;5014095;28;20103;-77
2024/03/15 01:06:05;;;;;;;6.10;3.28;;;13.80;87.50;;;;;;5014170;28;20018;-77
2024/03/15 01:08:31;;;;;;;7.05;3.70;;;13.70;87.60;;;;;;5028969;28;20033;-77
2024/03/15 01:10:58;;;;;;;7.57;3.55;;;13.70;87.50;;;;;;5013732;28;20046;-77
2024/03/15 01:13:24;;;;;;;8.98;3.97;;;13.70;87.80;;;;;;5012523;28;20026;-77
2024/03/15 01:15:50;;;;;;;7.47;4.07;;;13.80;88.00;;;;;;5012596;28;20049;-77
2024/03/15 01:18:16;;;;;;;7.45;3.78;;;13.80;88.30;;;;;;5013984;28;20490;-77
2024/03/15 01:20:42;;;;;;;6.93;3.88;;;13.80;88.20;;;;;;5013763;28;20131;-77
2024/03/15 01:23:08;;;;;;;6.15;3.50;;;13.80;88.20;;;;;;5028696;28;20029;-77
2024/03/15 01:25:34;;;;;;;7.63;3.90;;;13.80;88.30;;;;;;5028959;28;20109;-78
2024/03/15 01:28:04;;;;;;;6.38;3.80;;;13.80;88.90;;;;;;5012656;28;20018;-77
2024/03/15 01:30:30;;;;;;;9.45;4.38;;;13.80;88.80;;;;;;5012197;28;20036;-77
2024/03/15 01:32:56;;;;;;;8.00;4.35;;;13.80;88.80;;;;;;5028698;28;20371;-78
2024/03/15 01:35:22;;;;;;;7.80;4.15;;;13.80;89.30;;;;;;5012015;28;20042;-78
2024/03/15 01:37:48;;;;;;;7.32;4.35;;;13.80;89.30;;;;;;5013794;28;20030;-77
2024/03/15 01:40:15;;;;;;;8.85;4.10;;;13.80;89.30;;;;;;5028711;28;20113;-78
2024/03/15 01:42:41;;;;;;;9.68;4.40;;;13.80;89.30;;;;;;5013314;28;20033;-78
2024/03/15 01:45:09;;;;;;;8.93;4.47;;;13.80;89.40;;;;;;5012288;28;20448;-78
2024/03/15 01:47:36;;;;;;;9.05;4.00;;;13.80;89.80;;;;;;5013617;28;20523;-78
2024/03/15 01:50:02;;;;;;;6.90;3.88;;;13.80;89.60;;;;;;5013593;28;20513;-77
2024/03/15 01:52:33;;;;;;;8.75;4.40;;;13.80;89.80;;;;;;5013448;28;20091;-78
2024/03/15 01:54:59;;;;;;;9.77;3.90;;;13.80;90.00;;;;;;5013373;28;20040;-78
2024/03/15 01:57:24;;;;;;;8.13;4.18;;;13.80;90.10;;;;;;5013091;28;20026;-78
2024/03/15 01:59:50;;;;;;;7.72;3.95;;;13.80;90.20;;;;;;5011927;28;20390;-78
2024/03/15 02:02:16;;;;;;;7.80;3.63;;;13.80;90.10;;;;;;5013276;28;20036;-78
2024/03/15 02:04:54;;;;;;;11.35;4.65;;;13.80;90.00;;;;;;5012933;28;20062;-78
2024/03/15 02:07:30;;;;;;;8.02;3.83;;;13.80;90.20;;;;;;5013192;28;20114;-78
2024/03/15 02:10:08;;;;;;;7.75;3.90;;;13.80;90.20;;;;;;5013168;28;20493;-78
2024/03/15 02:12:34;;;;;;;11.10;4.13;;;13.80;90.30;;;;;;5013026;28;20021;-78
2024/03/15 02:14:59;;;;;;;6.78;3.60;;;13.80;90.30;;;;;;5012874;28;20041;-78
2024/03/15 02:17:27;;;;;;;6.68;3.50;;;13.80;90.40;;;;;;5012756;28;20033;-78
2024/03/15 02:19:52;;;;;;;8.85;3.40;;;13.80;90.40;;;;;;5013101;28;20358;-78
2024/03/15 02:22:18;;;;;;;6.97;3.80;;;13.70;90.40;;;;;;5012815;28;20053;-77
2024/03/15 02:24:44;;;;;;;5.63;3.22;;;13.70;90.40;;;;;;5012878;28;20459;-78
2024/03/15 02:27:13;;;;;;;9.23;3.85;;;13.80;90.40;;;;;;5012870;28;20026;-78
2024/03/15 02:29:40;;;;;;;8.80;3.72;;;13.70;90.50;;;;;;5011857;28;20026;-78
2024/03/15 02:32:06;;;;;;;8.13;4.25;;;13.80;90.60;;;;;;5012511;28;20115;-78
2024/03/15 02:34:34;;;;;;;10.63;5.00;;;13.80;90.50;;;;;;5012833;28;20029;-78
2024/03/15 02:37:03;;;;;;;7.40;3.45;;;13.80;90.70;;;;;;5027784;28;20084;-78
2024/03/15 02:39:29;;;;;;;7.57;3.80;;;13.80;90.70;;;;;;5014943;28;20029;-78
2024/03/15 02:41:56;;;;;;;7.40;3.53;;;13.80;90.80;;;;;;5016511;28;20022;-78
2024/03/15 02:44:22;;;;;;;8.77;4.30;;;13.70;90.70;;;;;;5016901;28;20018;-77
2024/03/15 02:46:48;;;;;;;7.57;3.63;;;13.70;90.80;;;;;;5032055;28;20029;-78
2024/03/15 02:49:14;;;;;;;9.30;4.05;;;13.70;90.80;;;;;;5016858;28;20382;-78
2024/03/15 02:51:41;;;;;;;9.27;3.47;;;13.80;90.90;;;;;;5016653;28;20029;-77
2024/03/15 02:54:08;;;;;;;8.23;3.60;;;13.70;90.90;;;;;;5016657;28;20018;-78
2024/03/15 02:56:34;;;;;;;11.95;4.57;;;13.70;90.90;;;;;;5016236;28;20363;-78
2024/03/15 02:59:00;;;;;;;6.53;3.63;;;13.70;90.90;;;;;;5015519;28;20099;-78
2024/03/15 03:01:25;;;;;;;11.63;3.42;;;13.70;90.90;;;;;;5016502;28;20429;-78
2024/03/15 03:03:51;;;;;;;6.72;3.42;;;13.70;90.90;;;;;;5015288;28;20469;-78
2024/03/15 03:06:17;;;;;;;8.75;3.53;;;13.70;91.00;;;;;;5016534;28;20489;-78
2024/03/15 03:08:42;;;;;;;8.85;4.10;;;13.70;91.10;;;;;;5016334;28;20022;-78
2024/03/15 03:11:09;;;;;;;7.88;3.85;;;13.70;91.10;;;;;;5031044;28;20029;-78
2024/03/15 03:13:38;;;;;;;9.80;3.50;;;13.60;91.10;;;;;;5016255;28;20018;-78
2024/03/15 03:16:07;;;;;;;9.23;3.80;;;13.60;91.20;;;;;;5016672;28;20033;-78
2024/03/15 03:18:32;;;;;;;8.48;3.60;;;13.60;91.30;;;;;;5016151;28;20068;-78
2024/03/15 03:20:59;;;;;;;10.98;4.53;;;13.60;91.50;;;;;;5016010;28;20069;-78
2024/03/15 03:23:26;;;;;;;6.85;2.97;;;13.60;91.40;;;;;;5016537;28;20461;-78
2024/03/15 03:25:51;;;;;;;7.68;3.42;;;13.60;91.40;;;;;;5031049;28;20385;-77
2024/03/15 03:28:17;;;;;;;6.30;3.60;;;13.60;91.40;;;;;;5015961;28;20037;-78
2024/03/15 03:30:44;;;;;;;8.02;3.83;;;13.60;91.30;;;;;;5015892;28;20021;-78
2024/03/15 03:33:09;;;;;;;7.30;3.30;;;13.60;91.40;;;;;;5015879;28;20061;-78
2024/03/15 03:35:35;;;;;;;7.32;3.80;;;13.60;91.40;;;;;;5015518;28;20030;-78
2024/03/15 03:38:02;;;;;;;9.07;4.18;;;13.60;91.60;;;;;;5015708;28;20021;-78
2024/03/15 03:40:28;;;;;;;6.15;3.30;;;13.60;91.60;;;;;;5015726;28;20022;-78
2024/03/15 03:42:54;;;;;;;6.38;3.28;;;13.60;91.60;;;;;;5014705;28;20026;-78
2024/03/15 03:45:22;;;;;;;8.40;3.53;;;13.70;91.70;;;;;;5015723;28;20041;-78
2024/03/15 03:47:49;;;;;;;9.23;3.70;;;13.70;91.80;;;;;;5015360;28;20049;-78
2024/03/15 03:50:17;;;;;;;6.53;3.30;;;13.70;92.10;;;;;;5014536;28;20496;-78
2024/03/15 03:52:44;;;;;;;8.70;3.83;;;13.70;92.00;;;;;;5030549;28;20036;-78
2024/03/15 03:55:10;;;;;;;7.63;3.63;;;13.60;92.20;;;;;;5015462;28;20274;-79
2024/03/15 03:57:37;;;;;;;8.23;3.95;;;13.60;92.90;;;;;;5015617;28;20061;-79
2024/03/15 04:00:37;;;;;;;9.27;4.10;;;13.50;92.80;;;;;;5015626;28;20054;-78
2024/03/15 04:02:55;;;;;;;10.88;4.25;;;13.40;94.00;;;;;;5014877;28;20030;-78
2024/03/15 04:05:21;;;;;;;10.88;4.35;;;13.20;94.50;;;;;;5015358;28;20046;-78
2024/03/15 04:07:47;;;;;;;10.48;5.13;;;13.00;94.80;;;;;;5015271;28;20496;-78
2024/03/15 04:10:15;;;;;;;10.20;5.03;;;12.80;96.10;;;;;;5015176;28;20178;-78
2024/03/15 04:12:45;;;;;;;15.88;5.50;;;12.60;97.90;;;;;;5015144;28;20017;-78
2024/03/15 04:15:11;;;;;;;10.38;4.88;;;12.50;98.60;;;;;;5015105;28;20049;-78
2024/03/15 04:17:38;;;;;;;11.10;5.35;;;12.40;99.90;;;;;;5029991;28;20517;-78
2024/03/15 04:20:07;;;;;;;7.90;4.63;;;12.40;99.90;;;;;;5014815;28;20065;-78
2024/03/15 04:22:33;;;;;;;10.77;5.47;;;12.40;99.90;;;;;;5014665;28;20481;-78
2024/03/15 04:24:59;;;;;;;9.07;5.25;;;12.30;99.90;;;;;;5014875;28;20036;-78
2024/03/15 04:27:25;;;;;;;13.35;5.45;;;12.30;99.90;;;;;;5029999;28;20033;-78
2024/03/15 04:29:51;;;;;;;12.40;5.95;;;12.20;99.90;;;;;;5030114;28;20026;-78
2024/03/15 04:32:19;;;;;;;10.23;4.60;;;12.20;99.90;;;;;;5013273;28;20025;-78
2024/03/15 04:34:48;;;;;;;8.70;5.28;;;12.20;99.90;;;;;;5013651;28;20492;-78
2024/03/15 04:37:17;;;;;;;9.32;4.72;;;12.20;99.90;;;;;;5014481;28;20026;-78
2024/03/15 04:39:43;;;;;;;10.43;5.90;;;12.20;99.90;;;;;;5029920;28;20025;-78
2024/03/15 04:42:09;;;;;;;12.45;5.13;;;12.20;99.90;;;;;;5013442;28;20496;-78
2024/03/15 04:44:38;;;;;;;12.55;5.72;;;12.20;99.90;;;;;;5014968;28;20062;-78
2024/03/15 04:47:06;;;;;;;10.43;5.47;;;12.20;99.90;;;;;;5030242;28;20041;-78
2024/03/15 04:49:32;;;;;;;11.55;5.70;;;12.20;99.90;;;;;;5014499;28;20018;-78
2024/03/15 04:51:59;;;;;;;9.50;4.97;;;12.20;99.90;;;;;;5014363;28;20030;-78
2024/03/15 04:54:25;;;;;;;9.35;4.57;;;12.20;99.90;;;;;;5013170;28;20501;-78
2024/03/15 04:56:50;;;;;;;13.82;5.07;;;12.20;99.90;;;;;;5014246;28;20026;-78
2024/03/15 04:59:16;;;;;;;10.55;5.55;;;12.20;99.90;;;;;;5012252;28;20097;-78
2024/03/15 05:01:45;;;;;;;7.80;4.60;;;12.20;99.90;;;;;;4997193;28;20024;-78
2024/03/15 05:04:10;;;;;;;9.15;5.18;;;12.20;99.90;;;;;;5009394;28;20101;-78
2024/03/15 05:06:36;;;;;;;12.68;6.07;;;12.20;99.90;;;;;;5012218;28;20046;-78
2024/03/15 05:09:02;;;;;;;10.65;5.22;;;12.20;99.90;;;;;;5013808;28;20148;-78
2024/03/15 05:11:28;;;;;;;7.82;4.15;;;12.20;99.90;;;;;;5012952;28;20028;-78
2024/03/15 05:13:54;;;;;;;9.48;4.85;;;12.20;99.90;;;;;;5013773;28;20022;-78
2024/03/15 05:16:19;;;;;;;9.90;5.07;;;12.20;99.90;;;;;;5014033;28;20123;-78
2024/03/15 05:18:46;;;;;;;13.30;4.95;;;12.20;99.90;;;;;;5012783;28;20470;-78
2024/03/15 05:21:12;;;;;;;10.95;5.38;;;12.20;99.90;;;;;;5013630;28;20037;-78
2024/03/15 05:23:37;;;;;;;12.40;5.03;;;12.20;99.90;;;;;;5014098;28;20098;-78
2024/03/15 05:26:05;;;;;;;14.18;5.47;;;12.10;99.90;;;;;;5013751;28;20048;-78
2024/03/15 05:28:34;;;;;;;10.10;5.45;;;12.10;99.90;;;;;;5013812;28;20104;-78
2024/03/15 05:31:03;;;;;;;11.02;5.72;;;12.10;99.90;;;;;;5012145;28;20029;-78
2024/03/15 05:33:30;;;;;;;12.32;5.50;;;12.10;99.90;;;;;;5016606;28;20033;-78
2024/03/15 05:35:56;;;;;;;9.48;5.35;;;12.10;99.90;;;;;;5028551;28;20104;-78
2024/03/15 05:38:21;;;;;;;14.93;6.18;;;12.10;99.90;;;;;;5013525;28;20077;-77
2024/03/15 05:40:47;;;;;;;14.88;5.80;;;12.10;99.90;;;;;;5013529;28;20603;-78
2024/03/15 05:43:14;;;;;;;12.90;5.78;;;12.10;99.90;;;;;;5013522;28;20036;-78
2024/03/15 05:45:41;;;;;;;10.40;5.97;;;12.10;99.90;;;;;;5013402;28;20052;-78
2024/03/15 05:48:07;;;;;;;13.07;5.78;;;12.10;99.90;;;;;;5013336;28;20225;-78
2024/03/15 05:50:32;;;;;;;14.10;5.95;;;12.10;99.90;;;;;;5028416;28;20152;-77
2024/03/15 05:53:00;;;;;;;12.25;6.03;;;12.10;99.90;;;;;;5013603;28;20113;-78
2024/03/15 05:55:26;;;;;;;13.75;6.63;;;12.10;99.90;;;;;;5028524;28;20030;-78
2024/03/15 05:57:53;;;;;;;9.13;4.53;;;12.10;99.90;;;;;;5028521;28;20044;-77
2024/03/15 06:00:21;;;;;;;11.63;5.28;;;12.20;99.90;;;;;;5013279;28;20025;-78
2024/03/15 06:02:48;;;;;;;9.52;5.53;;;12.20;99.90;;;;;;5028306;28;20021;-78
2024/03/15 06:05:14;;;;;;;13.30;6.10;;;12.20;99.90;;;;;;5028271;28;20029;-78
2024/03/15 06:07:39;;;;;;;12.90;5.43;;;12.20;99.90;;;;;;5013313;28;20034;-77
2024/03/15 06:10:05;;;;;;;11.65;5.20;;;12.20;99.90;;;;;;5013107;28;20544;-78
2024/03/15 06:12:31;;;;;;;11.25;5.72;;;12.30;99.90;;;;;;5027843;28;20033;-78
2024/03/15 06:14:57;;;;;;;10.98;6.80;;;12.30;99.90;;;;;;5012610;28;20060;-78
2024/03/15 06:17:23;;;;;;;10.13;5.30;;;12.30;99.90;;;;;;5013239;28;20022;-77
2024/03/15 06:19:52;;;;;;;11.40;5.40;;;12.30;99.90;;;;;;5012879;28;20454;-77
2024/03/15 06:22:18;;;;;;;10.90;6.22;;;12.30;99.90;;;;;;5012212;28;20038;-77
2024/03/15 06:24:45;;;;;;;10.80;5.38;;;12.30;99.90;;;;;;4995492;28;20092;-77
2024/03/15 06:27:13;;;;;;;9.95;5.85;;;12.40;99.90;;;;;;5009546;28;20466;-78
2024/03/15 06:29:40;;;;;;;12.68;5.90;;;12.50;99.90;;;;;;5012761;28;20101;-75
2024/03/15 06:32:07;;;;;;;11.18;5.32;;;12.50;99.90;;;;;;5012509;28;20030;-76
2024/03/15 06:34:34;;;;;;;9.82;5.50;;;12.50;99.90;;;;;;5003289;28;20113;-76
2024/03/15 06:37:02;;;;;;;9.98;5.00;;;12.50;99.90;;;;;;5005105;28;20071;-76
2024/03/15 06:42:20;;;;;;;9.82;5.25;;;12.50;99.90;;;;;;5005711;28;20031;-76
2024/03/15 06:44:50;;;;;;;12.15;5.47;;;12.60;99.90;;;;;;5019205;28;20109;-76
2024/03/15 06:47:15;;;;;;;13.05;5.97;;;12.60;99.90;;;;;;5001584;28;20521;-76
2024/03/15 06:49:44;;;;;;;10.43;4.75;;;12.70;99.90;;;;;;5002822;28;20026;-76
2024/03/15 06:52:34;;;;;;;10.20;5.18;;;12.70;99.90;;;;;;5020491;28;20021;-76
2024/03/15 06:55:01;;;;;;;10.98;5.55;;;12.70;99.90;;;;;;5018549;28;20025;-76
2024/03/15 06:57:31;;;;;;;9.85;5.10;;;12.70;99.90;;;;;;5011926;28;20022;-76
2024/03/15 06:59:57;;;;;;;11.32;5.07;;;12.80;99.90;;;;;;5012984;28;20015;-76
2024/03/15 07:02:23;;;;;;;10.18;4.80;;;12.80;99.90;;;;;;5027218;28;20088;-76
2024/03/15 07:04:50;;;;;;;9.45;4.65;;;12.80;99.90;;;;;;5008307;28;20022;-76
2024/03/15 07:07:20;;;;;;;9.55;4.88;;;12.80;99.90;;;;;;5012122;28;20018;-76
2024/03/15 07:09:46;;;;;;;9.23;5.20;;;12.90;99.90;;;;;;5010402;28;20377;-76
2024/03/15 07:12:14;;;;;;;10.45;4.68;;;12.90;99.90;;;;;;5012191;28;20022;-75
2024/03/15 07:14:40;;;;;;;11.10;5.18;;;12.90;99.90;;;;;;5012374;28;20025;-76
2024/03/15 07:17:09;;;;;;;10.50;5.13;;;13.00;99.90;;;;;;5012066;28;20018;-76
2024/03/15 07:19:35;;;;;;;9.43;4.32;;;13.00;99.90;;;;;;5012446;28;20014;-76
2024/03/15 07:22:01;;;;;;;8.27;4.32;;;13.10;99.90;;;;;;5012208;28;20042;-76
2024/03/15 07:24:27;;;;;;;15.88;5.07;;;13.10;99.90;;;;;;5012488;28;20072;-77
2024/03/15 07:26:52;;;;;;;9.20;5.20;;;13.10;99.90;;;;;;5015664;28;20018;-77
2024/03/15 07:29:18;;;;;;;9.20;4.60;;;13.20;99.90;;;;;;5015901;28;20381;-76
2024/03/15 07:31:44;;;;;;;8.57;4.25;;;13.20;99.90;;;;;;5030422;28;20028;-76
2024/03/15 07:34:10;;;;;;;9.18;5.00;;;13.20;99.90;;;;;;5015529;28;20021;-76
2024/03/15 07:36:35;;;;;;;11.02;4.43;;;13.30;99.90;;;;;;5015797;28;20170;-75
2024/03/15 07:39:02;;;;;;;6.80;3.85;;;13.30;99.90;;;;;;5015705;28;20109;-76
2024/03/15 07:41:31;;;;;;;8.68;4.18;;;13.40;99.90;;;;;;5015652;28;20076;-76
2024/03/15 07:43:57;;;;;;;8.40;4.70;;;13.40;99.90;;;;;;5014316;28;20025;-76
2024/03/15 07:46:24;;;;;;;8.52;4.20;;;13.40;99.90;;;;;;5013954;28;20370;-76
2024/03/15 07:48:50;;;;;;;11.57;4.45;;;13.40;99.90;;;;;;5015773;28;20036;-76
2024/03/15 07:51:16;;;;;;;10.18;4.13;;;13.50;99.90;;;;;;5015523;28;20026;-76
2024/03/15 07:53:41;;;;;;;10.93;4.18;;;13.50;99.90;;;;;;5015424;28;20033;-76
2024/03/15 07:56:09;;;;;;;7.85;3.92;;;13.50;99.90;;;;;;5015497;28;20100;-76
2024/03/15 07:58:37;;;;;;;8.57;3.70;;;13.50;99.90;;;;;;5030510;28;20052;-75
2024/03/15 08:01:09;;;;;;;9.43;3.70;;;13.60;99.90;;;;;;5015533;28;20075;-76
2024/03/15 08:03:35;;;;;;;8.82;4.18;;;13.60;99.90;;;;;;5014913;28;20029;-75
2024/03/15 08:06:03;;;;;;;7.30;3.25;;;13.70;99.90;;;;;;5014705;28;20030;-75
2024/03/15 08:08:32;;;;;;;8.98;3.50;;;13.70;99.90;;;;;;5015618;28;20090;-75
2024/03/15 08:10:58;;;;;;;3.90;2.67;;;13.80;99.90;;;;;;5025105;28;20029;-75
2024/03/15 08:13:25;;;;;;;8.52;3.22;;;13.80;99.90;;;;;;5022723;28;20338;-75
2024/03/15 08:16:18;;;;;;;5.45;2.42;;;13.80;99.90;;;;;;5036105;28;20125;-75
2024/03/15 08:18:49;;;;;;;7.72;2.58;;;13.90;99.90;;;;;;5030381;28;20026;-75
2024/03/15 08:21:17;;;;;;;8.57;2.65;;;13.90;99.90;;;;;;5014921;28;20066;-75
2024/03/15 08:23:45;;;;;;;4.72;2.10;;;14.00;99.90;;;;;;5014977;28;20030;-76
2024/03/15 08:26:12;;;;;;;6.50;2.45;;;14.00;99.90;;;;;;5023311;28;20168;-76
2024/03/15 08:28:38;;;;;;;11.20;2.55;;;14.10;99.90;;;;;;5028693;28;20124;-75
2024/03/15 08:31:04;;;;;;;8.05;2.33;;;14.20;99.90;;;;;;5034113;28;20108;-77
2024/03/15 08:33:30;;;;;;;5.72;2.28;;;14.30;99.90;;;;;;5033215;28;20107;-77
2024/03/15 08:35:56;;;;;;;9.48;2.45;;;14.30;99.90;;;;;;5034105;28;20434;-77
2024/03/15 08:38:22;;;;;;;6.82;2.30;;;14.40;99.90;;;;;;5034296;28;20072;-77
2024/03/15 08:40:48;;;;;;;6.22;1.95;;;14.40;99.90;;;;;;5034138;28;20024;-78
2024/03/15 08:43:14;;;;;;;6.25;2.33;;;14.40;99.90;;;;;;5028311;28;20026;-77
2024/03/15 08:45:40;;;;;;;8.50;3.00;;;14.40;99.90;;;;;;5039547;28;20067;-77
2024/03/15 08:48:07;;;;;;;5.72;2.78;;;14.40;99.90;;;;;;5014198;28;20437;-77
2024/03/15 08:50:33;;;;;;;6.55;2.70;;;14.40;99.90;;;;;;5014386;28;20033;-77
2024/03/15 08:53:02;;;;;;;7.53;2.67;;;14.30;99.90;;;;;;5012956;28;20021;-77
2024/03/15 08:55:28;;;;;;;8.35;2.90;;;14.30;99.90;;;;;;5014478;28;20053;-77
2024/03/15 08:57:54;;;;;;;6.00;2.55;;;14.30;99.90;;;;;;5011724;28;20064;-77
2024/03/15 09:00:19;;;;;;;6.90;2.33;;;14.20;99.90;;;;;;5018001;28;20046;-78
2024/03/15 09:02:45;;;;;;;7.93;2.90;;;14.20;99.90;;;;;;5023267;28;20025;-77
2024/03/15 09:05:12;;;;;;;7.30;3.15;;;14.10;99.90;;;;;;5024535;28;20026;-77
2024/03/15 09:07:41;;;;;;;6.25;3.38;;;14.10;99.90;;;;;;5016800;28;20030;-77
2024/03/15 09:10:16;;;;;;;6.85;3.47;;;14.00;99.90;;;;;;5012454;28;20021;-77
2024/03/15 09:12:43;;;;;;;6.60;3.35;;;14.00;99.90;;;;;;5013850;28;20360;-77
2024/03/15 09:15:11;;;;;;;8.52;3.03;;;14.00;99.90;;;;;;5013918;28;20389;-77
2024/03/15 09:17:37;;;;;;;7.50;3.13;;;14.00;99.90;;;;;;5014044;28;20121;-77
2024/03/15 09:20:14;;;;;;;6.68;2.92;;;13.90;99.90;;;;;;5014204;28;20026;-74
2024/03/15 09:22:40;;;;;;;7.47;3.10;;;13.90;99.90;;;;;;5013490;28;20041;-77
2024/03/15 09:25:06;;;;;;;6.90;3.03;;;13.90;99.90;;;;;;5028597;28;20080;-77
2024/03/15 09:27:36;;;;;;;7.03;3.08;;;13.90;99.90;;;;;;5028750;28;20026;-77
2024/03/15 09:30:16;;;;;;;9.82;3.88;;;13.90;99.90;;;;;;5028720;28;20033;-77
2024/03/15 09:32:43;;;;;;;6.45;3.00;;;13.90;99.90;;;;;;5013050;28;20385;-76
2024/03/15 09:35:12;;;;;;;5.40;2.85;;;13.90;99.90;;;;;;5013063;28;20022;-76
2024/03/15 09:37:46;;;;;;;9.45;2.97;;;14.00;99.90;;;;;;5013189;28;20025;-77
2024/03/15 09:40:15;;;;;;;6.40;2.60;;;14.00;99.90;;;;;;5013319;28;20072;-78
2024/03/15 09:42:43;;;;;;;8.25;1.65;;;14.10;99.90;;;;;;5013110;28;20018;-77
2024/03/15 09:45:12;;;;;;;6.22;2.17;;;14.20;99.90;;;;;;5028514;28;20105;-77
2024/03/15 09:47:40;;;;;;;4.80;1.40;;;14.40;99.90;;;;;;5027836;28;20030;-77
2024/03/15 09:50:16;;;;;;;6.20;1.75;;;14.60;99.90;;;;;;5028165;28;20025;-78
2024/03/15 09:52:44;;;;;;;6.05;1.52;;;14.70;99.90;;;;;;5013255;28;20028;-77
2024/03/15 09:55:16;;;;;;;5.25;1.75;;;14.90;99.90;;;;;;5013088;28;20025;-75
2024/03/15 09:57:48;;;;;;;4.82;1.20;;;15.00;99.90;;;;;;5028373;28;20026;-76
2024/03/15 10:00:21;;;;;;;4.28;1.23;;;15.20;99.90;;;;;;5012943;28;21849;-75
2024/03/15 10:02:48;;;;;;;9.65;1.48;;;15.40;99.90;;;;;;5013059;28;20041;-76
2024/03/15 10:05:20;;;;;;;3.53;1.05;;;15.70;99.90;;;;;;5012846;28;20057;-76
2024/03/15 10:07:47;;;;;;;5.65;1.10;;;15.90;99.90;;;;;;5028264;28;20033;-76
2024/03/15 10:10:13;;;;;;;6.90;1.10;;;16.20;99.90;;;;;;5012688;28;20034;-77
2024/03/15 10:12:44;;;;;;;4.80;0.90;;;16.40;99.90;;;;;;5025097;28;20110;-76
2024/03/15 10:15:14;;;;;;;11.57;1.70;;;16.60;99.00;;;;;;5032551;28;20029;-76
2024/03/15 10:17:43;;;;;;;8.73;1.10;;;16.80;96.40;;;;;;5032437;28;20018;-76
2024/03/15 10:20:17;;;;;;;6.07;1.27;;;16.90;96.00;;;;;;5032653;28;20029;-77
2024/03/15 10:22:44;;;;;;;6.15;1.08;;;17.10;95.60;;;;;;5032689;28;20037;-77
2024/03/15 10:25:18;;;;;;;5.32;0.95;;;17.20;93.60;;;;;;5032350;28;20022;-76
2024/03/15 10:27:50;;;;;;;9.30;1.73;;;17.20;93.40;;;;;;5032557;28;20100;-75
2024/03/15 10:30:24;;;;;;;5.55;1.35;;;17.30;92.30;;;;;;5032641;28;20032;-77
2024/03/15 10:32:50;;;;;;;7.50;1.15;;;17.50;93.20;;;;;;5031945;28;20388;-76
2024/03/15 10:35:19;;;;;;;6.88;1.35;;;17.90;92.30;;;;;;5032380;28;20477;-76
2024/03/15 10:37:45;;;;;;;6.35;1.30;;;18.20;91.20;;;;;;5026813;28;20406;-77
2024/03/15 10:40:21;;;;;;;4.78;0.80;;;18.30;90.10;;;;;;5020827;28;20037;-78
2024/03/15 10:42:52;;;;;;;4.55;1.00;;;18.40;89.80;;;;;;5044348;28;20060;-78
2024/03/15 10:45:25;;;;;;;7.25;1.10;;;18.30;89.30;;;;;;5020613;28;20013;-78
2024/03/15 10:47:52;;;;;;;6.57;1.60;;;18.30;87.10;;;;;;5022694;28;20029;-77
2024/03/15 10:50:24;;;;;;;6.78;1.55;;;18.20;87.30;;;;;;5021506;28;20022;-76
2024/03/15 10:52:51;;;;;;;6.10;1.63;;;18.40;88.30;;;;;;5020296;28;20013;-76
2024/03/15 10:55:25;;;;;;;6.00;1.40;;;18.90;88.00;;;;;;5022851;28;20018;-76
2024/03/15 10:57:55;;;;;;;5.28;1.10;;;19.10;86.70;;;;;;5021380;28;20081;-76
2024/03/15 11:00:24;;;;;;;4.30;1.00;;;19.10;85.10;;;;;;5019501;28;20010;-77
2024/03/15 11:02:54;;;;;;;5.82;1.30;;;19.10;83.60;;;;;;5018834;28;20080;-76
2024/03/15 11:05:24;;;;;;;4.97;1.30;;;18.90;83.10;;;;;;5022965;28;20033;-77
2024/03/15 11:08:19;;;;;;;7.25;1.77;;;18.80;81.20;;;;;;5024722;28;20029;-80
2024/03/15 11:11:02;;;;;;;6.75;2.15;;;18.50;80.40;;;;;;5049106;28;20041;-78
2024/03/15 11:13:33;;;;;;;6.15;1.58;;;18.10;82.00;;;;;;5024035;28;20025;-77
2024/03/15 11:15:59;;;;;;;7.10;1.52;;;18.00;82.90;;;;;;5021324;28;20041;-77
2024/03/15 11:18:35;;;;;;;5.30;1.10;;;17.80;83.20;;;;;;5032616;28;20120;-78
2024/03/15 11:21:01;;;;;;;4.95;1.15;;;17.60;83.70;;;;;;5024834;28;20050;-77
2024/03/15 11:23:27;;;;;;;7.13;1.83;;;17.50;84.30;;;;;;5023923;28;20021;-78
2024/03/15 11:26:23;;;;;;;7.38;1.55;;;17.20;84.60;;;;;;5047321;28;20029;-77
2024/03/15 11:28:54;;;;;;;6.07;1.27;;;17.10;85.60;;;;;;5022205;28;20053;-77
2024/03/15 11:31:31;;;;;;;6.63;1.60;;;17.10;86.10;;;;;;5020833;28;20452;-77
2024/03/15 11:33:58;;;;;;;7.68;1.77;;;17.10;86.00;;;;;;5024052;28;20049;-77
2024/03/15 11:36:28;;;;;;;5.53;1.02;;;17.00;86.00;;;;;;5024080;28;20030;-76
2024/03/15 11:38:53;;;;;;;4.57;1.40;;;16.90;86.20;;;;;;5022069;28;20474;-76
2024/03/15 11:41:21;;;;;;;5.43;1.13;;;16.90;86.40;;;;;;5031020;28;20030;-77
2024/03/15 11:43:53;;;;;;;9.45;1.77;;;16.80;86.80;;;;;;5015524;28;20030;-77
2024/03/15 11:46:19;;;;;;;7.55;1.73;;;16.70;88.10;;;;;;5015741;28;20439;-77
2024/03/15 11:48:46;;;;;;;7.65;1.55;;;16.60;88.50;;;;;;5015409;28;20045;-78
2024/03/15 11:51:11;;;;;;;6.90;1.42;;;16.40;88.90;;;;;;5014135;28;20469;-77
2024/03/15 11:53:37;;;;;;;6.45;1.65;;;16.40;89.40;;;;;;5015411;28;20029;-78
2024/03/15 11:56:07;;;;;;;7.03;1.52;;;16.20;89.80;;;;;;5023227;28;20034;-76
2024/03/15 11:58:40;;;;;;;4.88;1.50;;;16.10;90.30;;;;;;5025868;28;20074;-77
2024/03/15 12:01:06;;;;;;;11.52;2.55;;;16.00;90.80;;;;;;5024053;28;20545;-77
2024/03/15 12:03:32;;;;;;;8.70;3.10;;;15.80;93.60;;;;;;5033066;28;20026;-77
2024/03/15 12:06:00;;;;;;;11.13;3.33;;;15.50;95.10;;;;;;5031282;28;20021;-77
2024/03/15 12:08:28;;;;;;;10.93;2.75;;;15.10;97.60;;;;;;5033876;28;20025;-78
2024/03/15 12:10:56;;;;;;;6.30;2.58;;;14.80;99.00;;;;;;5045909;28;20029;-76
2024/03/15 12:13:24;;;;;;;9.20;3.10;;;14.70;99.90;;;;;;5046045;28;20100;-76
2024/03/15 12:15:51;;;;;;;8.68;3.33;;;14.50;99.90;;;;;;5030839;28;20045;-76
2024/03/15 12:18:26;;;;;;;7.85;2.42;;;14.60;99.90;;;;;;5035007;28;20030;-77
2024/03/15 12:20:52;;;;;;;9.77;2.70;;;15.20;99.90;;;;;;5034728;28;20396;-77
2024/03/15 12:23:20;;;;;;;6.95;2.00;;;15.80;99.90;;;;;;5028032;28;20462;-77
2024/03/15 12:25:46;;;;;;;4.25;1.48;;;16.40;99.90;;;;;;5033450;28;20021;-76
2024/03/15 12:28:17;;;;;;;3.17;1.27;;;16.70;99.90;;;;;;5034768;28;20392;-76
2024/03/15 12:30:47;;;;;;;4.75;1.02;;;16.70;99.90;;;;;;5034566;28;20025;-77
2024/03/15 12:33:13;;;;;;;4.30;0.80;;;16.70;99.90;;;;;;5034954;28;20030;-77
2024/03/15 12:35:39;;;;;;;4.00;0.80;;;17.00;99.90;;;;;;5033067;28;20056;-76
2024/03/15 12:38:06;;;;;;;3.95;1.13;;;17.30;99.90;;;;;;5034339;28;20461;-78
2024/03/15 12:40:33;;;;;;;3.33;0.68;;;17.90;99.90;;;;;;5034439;28;20037;-77
2024/03/15 12:42:59;;;;;;;2.53;0.63;;;18.50;99.90;;;;;;5034296;28;20112;-78
2024/03/15 12:45:24;;;;;;;7.07;0.85;;;19.00;99.90;;;;;;5034514;28;20105;-78
2024/03/15 12:47:50;;;;;;;2.67;0.75;;;19.20;99.90;;;;;;5033148;28;20024;-78
2024/03/15 12:50:17;;;;;;;4.75;1.25;;;19.20;98.80;;;;;;5033962;28;20427;-77